Rochester, NY

10:19 AM EDT on October 01, 2014 (GMT -0400)
Greater Rochester International | Change Station
CLOSE
Current Station
Airport
Location: Rochester,
Elevation: 554 ft
Nearby Weather Stations

Elev 554 ft 43.12 °N, 77.68 °W | Updated 25 minutes ago

Overcast
Overcast
61 °F
Feels Like 61 °F
N
8
Wind Variable Wind from NE

Today
High -- | Low -- °F
--% Chance of Precip.
Yesterday
High -- | Low -- °F
Precip. -- in
7:08 AM 6:51 PM
Waxing Crescent, 48% visible
Pressure 30.09 in
Visibility 4.0 miles
Clouds Overcast 500 ft
Dew Point 59 °F
Humidity 93%
Rainfall 0.00 in
Snow Depth Not available.
UV 1 out of 12
Pollen 2.00 out of 12
Air Quality Not available.
Flu Activity Not available.
METAR KROC 011354Z 05007KT 4SM -DZ BR OVC005 16/15 A3008 RMK AO2 DZB06 SLP189 P0000 T01610150

More Conditions Fewer Conditions

Pressure 30.09 in
Visibility 4.0 miles
Clouds Overcast 500 ft
Dew Point 59 °F
Humidity 93%
Rainfall 0.00 in
Snow Depth Not available.
UV 1 out of 12
Pollen 2.00 out of 12
Air Quality Not available.
Flu Activity Not available.
METAR KROC 011354Z 05007KT 4SM -DZ BR OVC005 16/15 A3008 RMK AO2 DZB06 SLP189 P0000 T01610150

More Conditions Fewer Conditions

10-Day Weather Forecast

Almanac

Astronomy

Oct. 01, 2014 Rise Set
Actual Time 7:08 AM EDT 6:51 PM EDT
Civil Twilight 6:39 AM EDT 7:20 PM EDT
Nautical Twilight 6:06 AM EDT 7:53 PM EDT
Astronomical Twilight 5:33 AM EDT 8:26 PM EDT
Moon 2:13 PM EDT No Moon Set
Length of Visible Light 12h 40m
Length of Day
11h 43m
Tomorrow will be 2m 54s shorter.
Waxing Crescent, 48% of the Moon is Illuminated
Today
Waxing Crescent
Oct 1
First Quarter
Oct 8
Full
Oct 15
Last Quarter
Oct 23
New

Today's Extremes

State Highs State Lows

Community

WunderPhotos

Upload Photos

1,757,952 photos uploaded!

Nearby

Air Quality

  Air Quality AQ Index Pollutant
Wednesday Good
PM2.5

Snow Depth

Station Depth Elevation
No new snow has been reported.

Earthquake Activity

City Distance Mag. Time & Date
No recent earthquake activity has been reported nearby.
Minimum magnitude displayed is 2.5.

Coastal Water Temperatures

Place Temperature
Buffalo, NY 66.9 °F
Alexandria Bay, NY 64.9 °F

Nearby Weather Stations